createdAt,value
2022-08-04T00:01:43.428Z,22.71
2022-08-04T00:04:18.007Z,22.70
2022-08-04T00:06:53.915Z,22.72
2022-08-04T00:09:34.879Z,22.71
2022-08-04T00:12:03.173Z,22.71
2022-08-04T00:14:35.857Z,22.70
2022-08-04T00:17:07.452Z,22.66
2022-08-04T00:19:45.172Z,22.67
2022-08-04T00:22:14.271Z,22.68
2022-08-04T00:24:41.775Z,22.69
2022-08-04T00:27:09.088Z,22.70
2022-08-04T00:29:38.255Z,22.70
2022-08-04T00:32:07.321Z,22.71
2022-08-04T00:34:34.334Z,22.71
2022-08-04T00:37:01.191Z,22.69
2022-08-04T00:39:30.173Z,22.68
2022-08-04T00:42:30.365Z,22.69
2022-08-04T00:45:00.121Z,22.68
2022-08-04T00:47:30.049Z,22.69
2022-08-04T00:50:06.315Z,22.71
2022-08-04T00:52:53.370Z,22.70
2022-08-04T00:55:46.088Z,22.68
2022-08-04T00:58:24.968Z,22.66
2022-08-04T01:01:06.955Z,22.62
2022-08-04T01:03:51.396Z,22.59
2022-08-04T01:06:39.334Z,22.58
2022-08-04T01:09:38.528Z,22.54
2022-08-04T01:12:26.753Z,22.49
2022-08-04T01:15:10.533Z,22.48
2022-08-04T01:17:46.427Z,22.44
2022-08-04T01:20:20.986Z,22.42
2022-08-04T01:23:09.585Z,22.42
2022-08-04T01:25:39.136Z,22.41
2022-08-04T01:28:47.190Z,22.40
2022-08-04T01:31:56.469Z,22.36
2022-08-04T01:34:23.904Z,22.30
2022-08-04T01:37:08.228Z,22.30
2022-08-04T01:39:41.683Z,22.29
2022-08-04T01:42:10.970Z,22.31
2022-08-04T01:44:41.509Z,22.31
2022-08-04T01:47:10.205Z,22.29
2022-08-04T01:49:40.045Z,22.28
2022-08-04T01:52:10.501Z,22.29
2022-08-04T01:54:41.782Z,22.31
2022-08-04T01:57:37.611Z,22.33
2022-08-04T02:00:00.569Z,22.28
2022-08-04T02:02:28.156Z,22.28
2022-08-04T02:04:56.153Z,22.27
2022-08-04T02:08:02.636Z,22.25
2022-08-04T02:10:31.174Z,22.16
2022-08-04T02:13:35.987Z,22.17
2022-08-04T02:16:23.606Z,22.18
2022-08-04T02:19:17.840Z,22.17
2022-08-04T02:21:51.881Z,22.14
2022-08-04T02:24:24.272Z,22.11
2022-08-04T02:26:54.286Z,22.07
2022-08-04T02:29:46.343Z,22.07
2022-08-04T02:32:25.640Z,22.07
2022-08-04T02:35:04.773Z,22.07
2022-08-04T02:37:32.864Z,22.07
2022-08-04T02:40:02.482Z,22.05
2022-08-04T02:42:29.997Z,22.02
2022-08-04T02:44:59.102Z,21.98
2022-08-04T02:48:08.328Z,21.98
2022-08-04T02:50:15.114Z,21.93
2022-08-04T02:53:00.848Z,21.94
2022-08-04T02:55:29.825Z,21.90
2022-08-04T02:57:59.012Z,21.88
2022-08-04T03:00:26.848Z,21.85
2022-08-04T03:03:15.230Z,21.82
2022-08-04T03:05:57.659Z,21.82
2022-08-04T03:08:49.479Z,21.82
2022-08-04T03:11:38.123Z,21.81
2022-08-04T03:14:10.732Z,21.80
2022-08-04T03:16:40.312Z,21.80
2022-08-04T03:19:07.184Z,21.77
2022-08-04T03:22:12.256Z,21.75
2022-08-04T03:25:16.360Z,21.71
2022-08-04T03:28:07.944Z,21.71
2022-08-04T03:31:09.115Z,21.75
2022-08-04T03:33:45.916Z,21.69
2022-08-04T03:36:40.136Z,21.72
2022-08-04T03:39:37.772Z,21.71
2022-08-04T03:42:38.932Z,21.66
2022-08-04T03:45:26.049Z,21.61
2022-08-04T03:47:55.865Z,21.57
2022-08-04T03:51:34.941Z,21.56
2022-08-04T03:54:15.083Z,21.53
2022-08-04T03:57:00.718Z,21.48
2022-08-04T03:59:48.771Z,21.46
2022-08-04T04:02:34.853Z,21.46
2022-08-04T04:06:00.390Z,21.43
2022-08-04T04:08:45.175Z,21.35
2022-08-04T04:11:55.428Z,21.32
2022-08-04T04:14:37.064Z,21.32
2022-08-04T04:17:48.828Z,21.32
2022-08-04T04:20:56.531Z,21.29
2022-08-04T04:23:40.889Z,21.25
2022-08-04T04:26:20.507Z,21.20
2022-08-04T04:29:06.282Z,21.19
2022-08-04T04:31:57.862Z,21.13
2022-08-04T04:35:13.005Z,21.10
2022-08-04T04:38:02.777Z,21.06
2022-08-04T04:40:39.632Z,21.04
2022-08-04T04:43:53.915Z,21.03
2022-08-04T04:46:54.896Z,21.02
2022-08-04T04:49:54.849Z,21.01
2022-08-04T04:52:36.522Z,20.99
2022-08-04T04:55:15.135Z,20.99
2022-08-04T04:57:54.468Z,20.99
2022-08-04T05:00:25.438Z,21.00
2022-08-04T05:03:23.484Z,20.99
2022-08-04T05:06:25.579Z,20.98
2022-08-04T05:09:02.411Z,20.98
2022-08-04T05:12:06.013Z,21.01
2022-08-04T05:14:54.349Z,21.00
2022-08-04T05:17:22.682Z,20.99
2022-08-04T05:19:59.453Z,20.95
2022-08-04T05:22:48.027Z,20.93
2022-08-04T05:25:19.912Z,20.92
2022-08-04T05:28:09.292Z,20.96
2022-08-04T05:30:48.708Z,20.97
2022-08-04T05:33:29.285Z,20.97
2022-08-04T05:36:18.418Z,20.97
2022-08-04T05:38:51.306Z,20.97
2022-08-04T05:41:19.216Z,20.97
2022-08-04T05:43:47.118Z,21.00
2022-08-04T05:46:17.615Z,21.02
2022-08-04T05:48:45.880Z,21.01
2022-08-04T05:51:14.410Z,21.02
2022-08-04T05:53:44.577Z,21.00
2022-08-04T05:56:14.306Z,20.97
2022-08-04T05:58:42.646Z,20.96
2022-08-04T06:01:11.656Z,20.92
2022-08-04T06:03:40.379Z,20.86
2022-08-04T06:06:09.569Z,20.82
2022-08-04T06:08:36.480Z,20.79
2022-08-04T06:11:06.322Z,20.74
2022-08-04T06:14:01.713Z,20.68
2022-08-04T06:16:36.280Z,20.66
2022-08-04T06:20:00.401Z,20.64
2022-08-04T06:22:06.887Z,20.62
2022-08-04T06:24:37.913Z,20.58
2022-08-04T06:27:06.542Z,20.59
2022-08-04T06:29:41.375Z,20.58
2022-08-04T06:32:40.030Z,20.56
2022-08-04T06:35:10.341Z,20.58
2022-08-04T06:37:41.935Z,20.60
2022-08-04T06:40:31.839Z,20.61
2022-08-04T06:43:01.701Z,20.62
2022-08-04T06:45:29.663Z,20.62
2022-08-04T06:47:56.888Z,20.62
2022-08-04T06:51:24.864Z,20.64
2022-08-04T06:53:12.412Z,20.66
2022-08-04T06:55:41.472Z,20.70
2022-08-04T06:58:10.159Z,20.70
2022-08-04T07:00:39.748Z,20.71
2022-08-04T07:03:07.771Z,20.70
2022-08-04T07:05:36.152Z,20.69
2022-08-04T07:08:04.104Z,20.72
2022-08-04T07:10:31.910Z,20.74
2022-08-04T07:13:00.173Z,20.76
2022-08-04T07:15:28.011Z,20.71
2022-08-04T07:18:00.520Z,20.71
2022-08-04T07:20:35.874Z,20.69
2022-08-04T07:23:06.874Z,20.70
2022-08-04T07:26:11.148Z,20.74
2022-08-04T07:28:27.024Z,20.80
2022-08-04T07:30:55.299Z,20.86
2022-08-04T07:33:23.279Z,20.91
2022-08-04T07:36:04.745Z,20.93
2022-08-04T07:38:51.071Z,20.95
2022-08-04T07:41:40.623Z,20.98
2022-08-04T07:44:08.699Z,21.03
2022-08-04T07:46:37.181Z,21.04
2022-08-04T07:49:05.048Z,21.12
2022-08-04T07:51:33.472Z,21.29
2022-08-04T07:54:02.616Z,21.34
2022-08-04T07:56:30.389Z,21.40
2022-08-04T07:58:57.319Z,21.41
2022-08-04T08:01:25.059Z,21.41
2022-08-04T08:03:54.165Z,21.37
2022-08-04T08:06:32.785Z,21.41
2022-08-04T08:09:12.290Z,21.42
2022-08-04T08:12:38.106Z,21.43
2022-08-04T08:14:37.325Z,21.42
2022-08-04T08:17:06.530Z,21.48
2022-08-04T08:19:37.564Z,21.59
2022-08-04T08:22:04.849Z,21.60
2022-08-04T08:24:35.578Z,21.60
2022-08-04T08:27:07.154Z,21.60
2022-08-04T08:29:35.380Z,21.59
2022-08-04T08:32:08.094Z,21.56
2022-08-04T08:34:36.390Z,21.59
2022-08-04T08:37:31.858Z,21.61
2022-08-04T08:40:40.174Z,21.58
2022-08-04T08:44:05.033Z,21.56
2022-08-04T08:46:15.586Z,21.57
2022-08-04T08:48:56.688Z,21.62
2022-08-04T08:51:54.495Z,21.63
2022-08-04T08:54:42.280Z,21.67
2022-08-04T08:57:41.353Z,21.69
2022-08-04T09:00:35.921Z,21.70
2022-08-04T09:03:27.228Z,21.71
2022-08-04T09:06:03.502Z,21.71
2022-08-04T09:09:01.030Z,21.74
2022-08-04T09:11:40.087Z,21.81
2022-08-04T09:14:24.137Z,21.99
2022-08-04T09:17:29.598Z,22.22
2022-08-04T09:20:13.386Z,22.36
2022-08-04T09:23:01.144Z,22.42
2022-08-04T09:25:54.597Z,22.42
2022-08-04T09:28:50.737Z,22.47
2022-08-04T09:31:20.231Z,22.51
2022-08-04T09:34:25.771Z,22.57
2022-08-04T09:37:13.466Z,22.63
2022-08-04T09:40:08.161Z,22.67
2022-08-04T09:43:19.836Z,22.67
2022-08-04T09:45:58.102Z,22.64
2022-08-04T09:49:02.367Z,22.68
2022-08-04T09:51:57.191Z,22.60
2022-08-04T09:54:50.191Z,22.58
2022-08-04T09:57:44.495Z,22.60
2022-08-04T10:00:16.901Z,22.66
2022-08-04T10:02:54.058Z,22.71
2022-08-04T10:05:25.962Z,22.75
2022-08-04T10:08:15.890Z,22.82
2022-08-04T10:10:56.788Z,22.86
2022-08-04T10:13:59.514Z,22.84
2022-08-04T10:16:46.176Z,22.80
2022-08-04T10:19:27.275Z,22.83
2022-08-04T10:22:28.330Z,22.92
2022-08-04T10:25:44.416Z,22.93
2022-08-04T10:28:05.370Z,22.81
2022-08-04T10:30:36.762Z,22.73
2022-08-04T10:33:12.655Z,22.79
2022-08-04T10:35:52.229Z,22.83
2022-08-04T10:38:40.849Z,22.91
2022-08-04T10:41:38.225Z,23.01
2022-08-04T10:44:13.839Z,23.11
2022-08-04T10:46:53.168Z,23.18
2022-08-04T10:49:29.468Z,23.19
2022-08-04T10:52:08.817Z,23.23
2022-08-04T10:55:06.680Z,23.27
2022-08-04T10:57:50.133Z,23.28
2022-08-04T11:00:28.043Z,23.25
2022-08-04T11:03:27.181Z,23.22
2022-08-04T11:05:56.391Z,23.17
2022-08-04T11:08:29.738Z,23.12
2022-08-04T11:11:15.078Z,23.14
2022-08-04T11:13:50.143Z,23.15
2022-08-04T11:16:26.659Z,23.19
2022-08-04T11:19:45.391Z,23.17
2022-08-04T11:22:25.743Z,23.15
2022-08-04T11:25:12.126Z,23.21
2022-08-04T11:27:51.139Z,23.28
2022-08-04T11:30:19.594Z,23.33
2022-08-04T11:33:17.309Z,23.35
2022-08-04T11:36:04.022Z,23.35
2022-08-04T11:38:50.909Z,23.34
2022-08-04T11:41:26.791Z,23.35
2022-08-04T11:44:04.190Z,23.40
2022-08-04T11:46:43.184Z,23.46
2022-08-04T11:49:27.098Z,23.54
2022-08-04T11:51:56.725Z,23.63
2022-08-04T11:54:23.593Z,23.71
2022-08-04T11:56:51.109Z,23.80
2022-08-04T11:59:27.481Z,23.90
2022-08-04T12:02:25.439Z,23.96
2022-08-04T12:05:01.715Z,24.00
2022-08-04T12:08:02.772Z,24.05
2022-08-04T12:10:45.612Z,24.05
2022-08-04T12:13:28.361Z,24.07
2022-08-04T12:16:11.153Z,24.08
2022-08-04T12:18:59.107Z,24.14
2022-08-04T12:21:43.515Z,24.20
2022-08-04T12:24:21.766Z,24.25
2022-08-04T12:27:05.767Z,24.31
2022-08-04T12:29:37.220Z,24.32
2022-08-04T12:32:13.865Z,24.34
2022-08-04T12:34:47.189Z,24.31
2022-08-04T12:37:28.735Z,24.29
2022-08-04T12:40:28.095Z,24.27
2022-08-04T12:43:39.679Z,24.17
2022-08-04T12:46:09.846Z,24.08
2022-08-04T12:48:38.796Z,24.00
2022-08-04T12:52:05.894Z,23.97
2022-08-04T12:53:56.749Z,23.97
2022-08-04T12:56:28.563Z,23.96
2022-08-04T12:59:04.454Z,23.96
2022-08-04T13:02:09.699Z,23.98
2022-08-04T13:04:29.423Z,24.01
2022-08-04T13:07:11.229Z,24.03
2022-08-04T13:09:38.664Z,24.07
2022-08-04T13:12:15.587Z,24.07
2022-08-04T13:14:47.421Z,24.08
2022-08-04T13:17:14.699Z,24.08
2022-08-04T13:19:53.044Z,24.04
2022-08-04T13:22:27.065Z,24.08
2022-08-04T13:27:48.421Z,24.13
2022-08-04T13:30:22.998Z,24.16
2022-08-04T13:30:24.310Z,24.09
2022-08-04T13:32:56.891Z,24.11
2022-08-04T13:35:54.101Z,24.11
2022-08-04T13:38:14.674Z,24.08
2022-08-04T13:40:46.616Z,24.09
2022-08-04T13:44:15.534Z,24.13
2022-08-04T13:46:39.404Z,24.12
2022-08-04T13:49:37.690Z,24.09
2022-08-04T13:52:11.305Z,24.09
2022-08-04T13:54:45.063Z,24.10
2022-08-04T13:57:19.476Z,24.12
2022-08-04T14:00:03.471Z,24.18
2022-08-04T14:03:19.145Z,24.20
2022-08-04T14:06:20.420Z,24.23
2022-08-04T14:08:52.331Z,24.18
2022-08-04T14:12:10.615Z,24.18
2022-08-04T14:14:25.633Z,24.17
2022-08-04T14:17:05.817Z,24.21
2022-08-04T14:20:00.425Z,24.26
2022-08-04T14:22:30.060Z,24.26
2022-08-04T14:25:00.894Z,24.29
2022-08-04T14:27:43.381Z,24.31
2022-08-04T14:30:38.129Z,24.27
2022-08-04T14:34:04.007Z,24.28
2022-08-04T14:35:59.371Z,24.35
2022-08-04T14:38:44.057Z,24.37
2022-08-04T14:41:11.389Z,24.36
2022-08-04T14:43:47.407Z,24.38
2022-08-04T14:46:14.613Z,24.34
2022-08-04T14:49:04.288Z,24.35
2022-08-04T14:51:45.943Z,24.32
2022-08-04T14:54:18.619Z,24.31
2022-08-04T14:56:58.437Z,24.33
2022-08-04T14:59:25.619Z,24.33
2022-08-04T15:01:59.944Z,24.33
2022-08-04T15:04:29.711Z,24.34
2022-08-04T15:06:57.160Z,24.33
2022-08-04T15:09:26.778Z,24.31
2022-08-04T15:11:54.008Z,24.30
2022-08-04T15:14:37.389Z,24.27
2022-08-04T15:17:12.023Z,24.28
2022-08-04T15:19:40.097Z,24.29
2022-08-04T15:22:07.564Z,24.27
2022-08-04T15:24:44.622Z,24.31
2022-08-04T15:27:20.142Z,24.34
2022-08-04T15:29:59.409Z,24.30
2022-08-04T15:32:34.410Z,24.26
2022-08-04T15:35:09.342Z,24.23
2022-08-04T15:37:57.440Z,24.19
2022-08-04T15:40:36.094Z,24.17
2022-08-04T15:43:26.758Z,24.13
2022-08-04T15:46:43.573Z,24.05
2022-08-04T15:48:47.488Z,23.99
2022-08-04T15:51:32.067Z,23.96
2022-08-04T15:54:03.208Z,23.93
2022-08-04T15:56:35.098Z,23.94
2022-08-04T15:59:01.899Z,23.94
2022-08-04T16:01:28.818Z,23.97
2022-08-04T16:04:00.955Z,23.97
2022-08-04T16:06:29.854Z,23.96
2022-08-04T16:09:05.492Z,24.00
2022-08-04T16:11:40.203Z,24.02
2022-08-04T16:14:11.478Z,24.03
2022-08-04T16:16:45.523Z,24.03
2022-08-04T16:19:36.196Z,24.04
2022-08-04T16:22:04.143Z,24.06
2022-08-04T16:24:36.892Z,24.05
2022-08-04T16:27:10.593Z,24.03
2022-08-04T16:29:40.125Z,24.05
2022-08-04T16:32:13.238Z,24.05
2022-08-04T16:34:55.262Z,24.02
2022-08-04T16:37:43.303Z,24.04
2022-08-04T16:40:36.303Z,24.03
2022-08-04T16:43:13.641Z,23.99
2022-08-04T16:45:44.878Z,23.95
2022-08-04T16:48:12.956Z,23.94
2022-08-04T16:50:49.706Z,23.92
2022-08-04T16:53:51.897Z,23.90
2022-08-04T16:56:06.887Z,23.87
2022-08-04T16:58:36.735Z,23.86
2022-08-04T17:01:32.357Z,23.86
2022-08-04T17:04:05.524Z,23.85
2022-08-04T17:06:38.622Z,23.85
2022-08-04T17:09:18.281Z,23.85
2022-08-04T17:11:46.711Z,23.82
2022-08-04T17:14:13.873Z,23.82
2022-08-04T17:16:43.431Z,23.81
2022-08-04T17:19:19.912Z,23.80
2022-08-04T17:21:52.496Z,23.82
2022-08-04T17:24:19.345Z,23.78
2022-08-04T17:26:54.232Z,23.79
2022-08-04T17:29:43.268Z,23.76
2022-08-04T17:32:21.650Z,23.78
2022-08-04T17:37:53.207Z,23.74
2022-08-04T17:40:25.482Z,23.71
2022-08-04T17:44:00.914Z,23.71
2022-08-04T17:46:35.941Z,23.72
2022-08-04T17:49:20.151Z,23.70
2022-08-04T17:52:04.409Z,23.69
2022-08-04T17:54:39.067Z,23.70
2022-08-04T17:57:21.373Z,23.70
2022-08-04T17:59:56.969Z,23.69
2022-08-04T18:02:32.583Z,23.66
2022-08-04T18:05:06.932Z,23.64
2022-08-04T18:10:52.424Z,23.58
2022-08-04T18:13:27.236Z,23.52
2022-08-04T18:16:05.145Z,23.51
2022-08-04T18:18:32.279Z,23.51
2022-08-04T18:21:03.455Z,23.51
2022-08-04T18:23:33.056Z,23.46
2022-08-04T18:26:03.579Z,23.46
2022-08-04T18:28:33.378Z,23.42
2022-08-04T18:31:02.427Z,23.38
2022-08-04T18:33:40.776Z,23.36
2022-08-04T18:36:35.282Z,23.34
2022-08-04T18:39:13.239Z,23.32
2022-08-04T18:42:01.082Z,23.31
2022-08-04T18:44:30.790Z,23.25
2022-08-04T18:47:22.469Z,23.22
2022-08-04T18:51:01.033Z,23.21
2022-08-04T18:55:34.032Z,23.17
2022-08-04T18:58:17.165Z,23.17
2022-08-04T19:00:53.639Z,23.19
2022-08-04T19:03:22.805Z,23.18
2022-08-04T19:05:50.454Z,23.14
2022-08-04T19:08:35.514Z,23.14
2022-08-04T19:11:37.371Z,23.15
2022-08-04T19:13:54.518Z,23.14
2022-08-04T19:16:30.055Z,23.15
2022-08-04T19:19:02.503Z,23.16
2022-08-04T19:24:32.180Z,23.11
2022-08-04T19:29:52.220Z,23.11
2022-08-04T19:32:21.488Z,23.12
2022-08-04T19:34:52.485Z,23.11
2022-08-04T19:37:56.915Z,23.08
2022-08-04T19:40:10.566Z,23.05
2022-08-04T19:42:43.193Z,23.04
2022-08-04T19:45:15.517Z,23.06
2022-08-04T19:48:17.109Z,23.05
2022-08-04T19:50:30.483Z,23.02
2022-08-04T19:52:57.795Z,23.00
2022-08-04T19:55:37.573Z,22.98
2022-08-04T19:58:08.396Z,22.92
2022-08-04T20:00:37.895Z,22.89
2022-08-04T20:03:11.535Z,22.81
2022-08-04T20:05:54.351Z,22.78
2022-08-04T20:08:24.351Z,22.73
2022-08-04T20:10:52.541Z,22.70
2022-08-04T20:13:21.837Z,22.64
2022-08-04T20:15:55.250Z,22.60
2022-08-04T20:18:35.750Z,22.56
2022-08-04T20:21:18.964Z,22.51
2022-08-04T20:23:50.148Z,22.49
2022-08-04T20:26:17.833Z,22.48
2022-08-04T20:28:45.945Z,22.47
2022-08-04T20:31:19.336Z,22.46
2022-08-04T20:33:55.564Z,22.46
2022-08-04T20:36:22.960Z,22.47
2022-08-04T20:38:54.884Z,22.44
2022-08-04T20:41:22.563Z,22.40
2022-08-04T20:43:50.736Z,22.37
2022-08-04T20:46:28.646Z,22.37
2022-08-04T20:49:04.714Z,22.33
2022-08-04T20:51:33.380Z,22.29
2022-08-04T20:54:01.987Z,22.22
2022-08-04T20:56:30.790Z,22.18
2022-08-04T20:59:01.519Z,22.15
2022-08-04T21:01:35.482Z,22.15
2022-08-04T21:04:27.951Z,22.13
2022-08-04T21:09:37.993Z,22.10
2022-08-04T21:12:28.586Z,22.06
2022-08-04T21:15:13.490Z,22.02
2022-08-04T21:17:59.597Z,21.98
2022-08-04T21:20:28.836Z,21.99
2022-08-04T21:22:59.798Z,21.98
2022-08-04T21:25:29.652Z,21.96
2022-08-04T21:27:58.823Z,21.93
2022-08-04T21:30:26.962Z,21.89
2022-08-04T21:32:55.395Z,21.88
2022-08-04T21:35:24.955Z,21.85
2022-08-04T21:40:58.521Z,21.74
2022-08-04T21:43:42.441Z,21.73
2022-08-04T21:46:11.426Z,21.65
2022-08-04T21:48:39.395Z,21.53
2022-08-04T21:52:00.204Z,21.43
2022-08-04T21:54:17.126Z,21.32
2022-08-04T21:56:51.499Z,21.23
2022-08-04T21:59:30.614Z,21.18
2022-08-04T22:02:00.063Z,21.13
2022-08-04T22:04:27.795Z,21.11
2022-08-04T22:06:55.191Z,21.11
2022-08-04T22:09:28.869Z,21.11
2022-08-04T22:11:56.325Z,21.08
2022-08-04T22:14:29.313Z,21.06
2022-08-04T22:17:02.595Z,21.01
2022-08-04T22:19:50.054Z,21.02
2022-08-04T22:22:25.341Z,20.99
2022-08-04T22:24:55.483Z,20.93
2022-08-04T22:27:44.445Z,20.84
2022-08-04T22:30:17.371Z,20.77
2022-08-04T22:32:47.253Z,20.75
2022-08-04T22:35:33.288Z,20.70
2022-08-04T22:38:06.086Z,20.68
2022-08-04T22:40:35.096Z,20.71
2022-08-04T22:43:03.696Z,20.67
2022-08-04T22:45:50.899Z,20.64
2022-08-04T22:48:18.869Z,20.63
2022-08-04T22:50:45.992Z,20.62
2022-08-04T22:53:17.821Z,20.63
2022-08-04T22:56:07.474Z,20.60
2022-08-04T22:58:32.828Z,20.56
2022-08-04T23:01:03.011Z,20.57
2022-08-04T23:03:37.007Z,20.54
2022-08-04T23:06:10.570Z,20.58
2022-08-04T23:08:43.295Z,20.61
2022-08-04T23:11:15.437Z,20.58
2022-08-04T23:13:43.165Z,20.54
2022-08-04T23:16:10.646Z,20.52
2022-08-04T23:18:41.841Z,20.52
2022-08-04T23:21:11.272Z,20.49
2022-08-04T23:23:45.489Z,20.49
2022-08-04T23:26:27.392Z,20.53
2022-08-04T23:28:56.054Z,20.52
2022-08-04T23:31:23.931Z,20.45
2022-08-04T23:33:52.279Z,20.42
2022-08-04T23:36:26.337Z,20.42
2022-08-04T23:39:03.891Z,20.39
2022-08-04T23:41:54.148Z,20.37
2022-08-04T23:44:25.186Z,20.33
2022-08-04T23:47:01.276Z,20.33
2022-08-04T23:49:43.752Z,20.28
2022-08-04T23:52:27.978Z,20.26
2022-08-04T23:54:58.873Z,20.21
2022-08-04T23:58:02.176Z,20.19
